sensor_id;sensor_type;location;lat;lon;timestamp;pressure;altitude;pressure_sealevel;temperature;humidity
6423;BME280;3244;42.708;23.288;2023-07-02T00:01:35;94390.19;;;20.17;84.04
6423;BME280;3244;42.708;23.288;2023-07-02T00:04:02;94409.19;;;20.16;84.33
6423;BME280;3244;42.708;23.288;2023-07-02T00:06:29;94400.84;;;20.02;84.39
6423;BME280;3244;42.708;23.288;2023-07-02T00:08:59;94398.16;;;19.93;84.90
6423;BME280;3244;42.708;23.288;2023-07-02T00:11:25;94400.78;;;19.82;85.14
6423;BME280;3244;42.708;23.288;2023-07-02T00:13:52;94388.91;;;19.90;85.35
6423;BME280;3244;42.708;23.288;2023-07-02T00:16:19;94389.94;;;19.99;85.08
6423;BME280;3244;42.708;23.288;2023-07-02T00:18:47;94386.81;;;19.84;85.15
6423;BME280;3244;42.708;23.288;2023-07-02T00:21:17;94381.38;;;19.78;85.64
6423;BME280;3244;42.708;23.288;2023-07-02T00:23:44;94384.13;;;19.86;85.57
6423;BME280;3244;42.708;23.288;2023-07-02T00:26:11;94386.41;;;19.79;85.74
6423;BME280;3244;42.708;23.288;2023-07-02T00:28:37;94389.56;;;19.72;86.22
6423;BME280;3244;42.708;23.288;2023-07-02T00:31:04;94397.19;;;19.73;85.91
6423;BME280;3244;42.708;23.288;2023-07-02T00:33:31;94396.38;;;19.73;86.27
6423;BME280;3244;42.708;23.288;2023-07-02T00:35:59;94404.59;;;19.66;86.67
6423;BME280;3244;42.708;23.288;2023-07-02T00:38:27;94412.31;;;19.66;85.76
6423;BME280;3244;42.708;23.288;2023-07-02T00:40:53;94408.31;;;19.74;85.59
6423;BME280;3244;42.708;23.288;2023-07-02T00:43:20;94405.06;;;19.60;86.14
6423;BME280;3244;42.708;23.288;2023-07-02T00:45:47;94417.25;;;19.58;85.77
6423;BME280;3244;42.708;23.288;2023-07-02T00:48:13;94422.88;;;19.63;85.39
6423;BME280;3244;42.708;23.288;2023-07-02T00:50:40;94424.88;;;19.60;85.80
6423;BME280;3244;42.708;23.288;2023-07-02T00:53:08;94419.28;;;19.55;86.13
6423;BME280;3244;42.708;23.288;2023-07-02T00:55:35;94426.38;;;19.62;85.96
6423;BME280;3244;42.708;23.288;2023-07-02T00:58:02;94423.81;;;19.62;86.56
6423;BME280;3244;42.708;23.288;2023-07-02T01:00:29;94411.47;;;19.77;85.63
6423;BME280;3244;42.708;23.288;2023-07-02T01:02:56;94407.19;;;19.87;85.19
6423;BME280;3244;42.708;23.288;2023-07-02T01:05:25;94404.72;;;19.97;83.59
6423;BME280;3244;42.708;23.288;2023-07-02T01:07:57;94395.00;;;19.89;83.61
6423;BME280;3244;42.708;23.288;2023-07-02T01:10:25;94404.97;;;19.94;83.64
6423;BME280;3244;42.708;23.288;2023-07-02T01:12:52;94402.88;;;19.88;83.87
6423;BME280;3244;42.708;23.288;2023-07-02T01:15:19;94388.94;;;20.11;82.78
6423;BME280;3244;42.708;23.288;2023-07-02T01:17:47;94390.94;;;20.08;83.20
6423;BME280;3244;42.708;23.288;2023-07-02T01:20:15;94397.16;;;20.05;82.93
6423;BME280;3244;42.708;23.288;2023-07-02T01:22:42;94394.44;;;20.07;83.58
6423;BME280;3244;42.708;23.288;2023-07-02T01:25:09;94393.16;;;20.12;82.86
6423;BME280;3244;42.708;23.288;2023-07-02T01:27:35;94382.09;;;20.21;82.83
6423;BME280;3244;42.708;23.288;2023-07-02T01:30:02;94362.66;;;20.38;81.88
6423;BME280;3244;42.708;23.288;2023-07-02T01:32:29;94367.47;;;20.31;81.26
6423;BME280;3244;42.708;23.288;2023-07-02T01:34:56;94378.16;;;20.06;82.45
6423;BME280;3244;42.708;23.288;2023-07-02T01:37:25;94367.94;;;19.84;84.16
6423;BME280;3244;42.708;23.288;2023-07-02T01:39:52;94360.03;;;19.76;85.03
6423;BME280;3244;42.708;23.288;2023-07-02T01:42:19;94373.16;;;19.73;85.23
6423;BME280;3244;42.708;23.288;2023-07-02T01:44:47;94374.09;;;19.72;84.95
6423;BME280;3244;42.708;23.288;2023-07-02T01:47:14;94371.19;;;19.97;83.01
6423;BME280;3244;42.708;23.288;2023-07-02T01:49:42;94372.59;;;20.01;82.82
6423;BME280;3244;42.708;23.288;2023-07-02T01:52:08;94379.75;;;19.97;83.19
6423;BME280;3244;42.708;23.288;2023-07-02T01:54:37;94388.19;;;19.67;83.32
6423;BME280;3244;42.708;23.288;2023-07-02T01:57:04;94382.13;;;19.46;83.95
6423;BME280;3244;42.708;23.288;2023-07-02T01:59:31;94378.63;;;19.36;84.31
6423;BME280;3244;42.708;23.288;2023-07-02T02:01:57;94353.84;;;19.24;85.51
6423;BME280;3244;42.708;23.288;2023-07-02T02:04:24;94340.06;;;19.02;85.97
6423;BME280;3244;42.708;23.288;2023-07-02T02:06:51;94349.22;;;18.73;87.67
6423;BME280;3244;42.708;23.288;2023-07-02T02:09:18;94355.28;;;18.83;87.68
6423;BME280;3244;42.708;23.288;2023-07-02T02:11:48;94353.53;;;18.84;87.32
6423;BME280;3244;42.708;23.288;2023-07-02T02:14:15;94361.16;;;18.96;86.92
6423;BME280;3244;42.708;23.288;2023-07-02T02:16:42;94365.09;;;19.12;87.29
6423;BME280;3244;42.708;23.288;2023-07-02T02:19:11;94364.97;;;19.24;87.34
6423;BME280;3244;42.708;23.288;2023-07-02T02:21:37;94356.06;;;19.17;86.92
6423;BME280;3244;42.708;23.288;2023-07-02T02:24:05;94351.09;;;19.48;85.68
6423;BME280;3244;42.708;23.288;2023-07-02T02:26:32;94353.78;;;19.35;86.18
6423;BME280;3244;42.708;23.288;2023-07-02T02:29:00;94349.97;;;19.18;86.80
6423;BME280;3244;42.708;23.288;2023-07-02T02:31:27;94350.09;;;19.17;86.86
6423;BME280;3244;42.708;23.288;2023-07-02T02:33:54;94341.72;;;19.03;87.71
6423;BME280;3244;42.708;23.288;2023-07-02T02:36:20;94334.72;;;18.72;88.69
6423;BME280;3244;42.708;23.288;2023-07-02T02:38:47;94339.84;;;18.50;90.25
6423;BME280;3244;42.708;23.288;2023-07-02T02:41:14;94333.75;;;18.28;91.23
6423;BME280;3244;42.708;23.288;2023-07-02T02:43:41;94336.06;;;18.31;91.18
6423;BME280;3244;42.708;23.288;2023-07-02T02:46:09;94340.53;;;18.29;91.61
6423;BME280;3244;42.708;23.288;2023-07-02T02:48:35;94354.31;;;18.40;91.04
6423;BME280;3244;42.708;23.288;2023-07-02T02:51:03;94346.81;;;18.36;90.80
6423;BME280;3244;42.708;23.288;2023-07-02T02:53:30;94358.97;;;18.34;90.37
6423;BME280;3244;42.708;23.288;2023-07-02T02:55:56;94347.47;;;18.62;89.40
6423;BME280;3244;42.708;23.288;2023-07-02T02:58:23;94353.53;;;18.50;89.46
6423;BME280;3244;42.708;23.288;2023-07-02T03:00:50;94360.31;;;18.51;89.37
6423;BME280;3244;42.708;23.288;2023-07-02T03:03:18;94366.97;;;18.54;89.20
6423;BME280;3244;42.708;23.288;2023-07-02T03:05:45;94359.69;;;18.59;88.69
6423;BME280;3244;42.708;23.288;2023-07-02T03:08:13;94357.63;;;18.64;87.24
6423;BME280;3244;42.708;23.288;2023-07-02T03:10:41;94344.19;;;18.60;87.52
6423;BME280;3244;42.708;23.288;2023-07-02T03:13:08;94349.91;;;18.64;87.18
6423;BME280;3244;42.708;23.288;2023-07-02T03:15:34;94347.69;;;18.71;87.79
6423;BME280;3244;42.708;23.288;2023-07-02T03:18:01;94343.03;;;18.76;87.41
6423;BME280;3244;42.708;23.288;2023-07-02T03:20:29;94360.41;;;19.06;85.10
6423;BME280;3244;42.708;23.288;2023-07-02T03:22:56;94373.06;;;18.86;86.63
6423;BME280;3244;42.708;23.288;2023-07-02T03:25:22;94387.34;;;18.90;87.09
6423;BME280;3244;42.708;23.288;2023-07-02T03:27:49;94382.88;;;19.26;86.33
6423;BME280;3244;42.708;23.288;2023-07-02T03:30:16;94379.22;;;19.40;85.70
6423;BME280;3244;42.708;23.288;2023-07-02T03:32:42;94367.47;;;19.58;84.26
6423;BME280;3244;42.708;23.288;2023-07-02T03:35:09;94366.66;;;19.57;84.18
6423;BME280;3244;42.708;23.288;2023-07-02T03:37:37;94380.91;;;19.73;83.75
6423;BME280;3244;42.708;23.288;2023-07-02T03:40:08;94386.94;;;19.83;83.48
6423;BME280;3244;42.708;23.288;2023-07-02T03:42:34;94381.69;;;20.05;82.68
6423;BME280;3244;42.708;23.288;2023-07-02T03:45:01;94375.53;;;20.17;82.30
6423;BME280;3244;42.708;23.288;2023-07-02T03:47:28;94375.59;;;20.27;81.90
6423;BME280;3244;42.708;23.288;2023-07-02T03:49:55;94371.25;;;20.27;81.85
6423;BME280;3244;42.708;23.288;2023-07-02T03:52:22;94367.88;;;20.48;80.08
6423;BME280;3244;42.708;23.288;2023-07-02T03:54:50;94364.78;;;20.54;79.94
6423;BME280;3244;42.708;23.288;2023-07-02T03:57:16;94356.44;;;20.71;79.43
6423;BME280;3244;42.708;23.288;2023-07-02T03:59:43;94357.97;;;20.83;79.01
6423;BME280;3244;42.708;23.288;2023-07-02T04:02:10;94365.63;;;20.94;78.24
6423;BME280;3244;42.708;23.288;2023-07-02T04:04:36;94371.31;;;20.88;77.70
6423;BME280;3244;42.708;23.288;2023-07-02T04:07:03;94368.53;;;20.70;78.84
6423;BME280;3244;42.708;23.288;2023-07-02T04:09:30;94367.66;;;20.60;79.09
6423;BME280;3244;42.708;23.288;2023-07-02T04:11:59;94380.66;;;20.49;79.63
6423;BME280;3244;42.708;23.288;2023-07-02T04:14:26;94373.78;;;20.38;79.91
6423;BME280;3244;42.708;23.288;2023-07-02T04:16:53;94388.34;;;20.40;80.32
6423;BME280;3244;42.708;23.288;2023-07-02T04:19:19;94397.69;;;20.61;79.75
6423;BME280;3244;42.708;23.288;2023-07-02T04:21:46;94401.16;;;20.71;79.51
6423;BME280;3244;42.708;23.288;2023-07-02T04:24:13;94397.69;;;20.61;79.75
6423;BME280;3244;42.708;23.288;2023-07-02T04:26:39;94392.38;;;20.53;80.38
6423;BME280;3244;42.708;23.288;2023-07-02T04:29:09;94399.28;;;20.53;80.45
6423;BME280;3244;42.708;23.288;2023-07-02T04:31:36;94410.03;;;20.58;79.88
6423;BME280;3244;42.708;23.288;2023-07-02T04:34:03;94408.69;;;20.54;80.35
6423;BME280;3244;42.708;23.288;2023-07-02T04:36:31;94410.28;;;20.55;80.68
6423;BME280;3244;42.708;23.288;2023-07-02T04:38:58;94423.25;;;20.64;79.98
6423;BME280;3244;42.708;23.288;2023-07-02T04:41:24;94419.59;;;20.67;79.58
6423;BME280;3244;42.708;23.288;2023-07-02T04:43:51;94425.22;;;20.72;79.42
6423;BME280;3244;42.708;23.288;2023-07-02T04:46:19;94431.22;;;20.82;79.52
6423;BME280;3244;42.708;23.288;2023-07-02T04:48:46;94423.59;;;20.81;79.46
6423;BME280;3244;42.708;23.288;2023-07-02T04:51:12;94425.09;;;20.74;80.19
6423;BME280;3244;42.708;23.288;2023-07-02T04:53:39;94426.47;;;20.78;80.08
6423;BME280;3244;42.708;23.288;2023-07-02T04:56:06;94433.91;;;20.71;80.31
6423;BME280;3244;42.708;23.288;2023-07-02T04:58:32;94436.25;;;20.84;79.96
6423;BME280;3244;42.708;23.288;2023-07-02T05:00:59;94429.78;;;20.89;79.64
6423;BME280;3244;42.708;23.288;2023-07-02T05:03:27;94435.25;;;20.96;79.31
6423;BME280;3244;42.708;23.288;2023-07-02T05:05:54;94431.34;;;21.11;78.86
6423;BME280;3244;42.708;23.288;2023-07-02T05:08:21;94429.97;;;21.28;77.74
6423;BME280;3244;42.708;23.288;2023-07-02T05:10:48;94440.38;;;21.47;76.74
6423;BME280;3244;42.708;23.288;2023-07-02T05:13:14;94441.91;;;21.69;75.42
6423;BME280;3244;42.708;23.288;2023-07-02T05:15:41;94442.13;;;21.56;75.95
6423;BME280;3244;42.708;23.288;2023-07-02T05:18:08;94446.22;;;21.49;76.31
6423;BME280;3244;42.708;23.288;2023-07-02T05:20:36;94444.75;;;21.66;75.79
6423;BME280;3244;42.708;23.288;2023-07-02T05:23:03;94441.88;;;21.50;75.59
6423;BME280;3244;42.708;23.288;2023-07-02T05:25:29;94440.06;;;21.41;76.67
6423;BME280;3244;42.708;23.288;2023-07-02T05:27:57;94437.03;;;21.26;76.83
6423;BME280;3244;42.708;23.288;2023-07-02T05:30:24;94443.38;;;20.91;78.82
6423;BME280;3244;42.708;23.288;2023-07-02T05:32:51;94441.16;;;20.77;79.58
6423;BME280;3244;42.708;23.288;2023-07-02T05:35:18;94448.28;;;20.94;79.54
6423;BME280;3244;42.708;23.288;2023-07-02T05:37:46;94448.31;;;21.04;79.32
6423;BME280;3244;42.708;23.288;2023-07-02T05:40:13;94454.19;;;21.27;77.38
6423;BME280;3244;42.708;23.288;2023-07-02T05:42:39;94455.38;;;21.23;77.21
6423;BME280;3244;42.708;23.288;2023-07-02T05:45:08;94463.28;;;21.31;77.70
6423;BME280;3244;42.708;23.288;2023-07-02T05:47:35;94457.94;;;21.63;76.59
6423;BME280;3244;42.708;23.288;2023-07-02T05:50:02;94456.56;;;21.49;75.78
6423;BME280;3244;42.708;23.288;2023-07-02T05:52:28;94459.94;;;21.40;76.26
6423;BME280;3244;42.708;23.288;2023-07-02T05:54:56;94468.75;;;21.28;76.91
6423;BME280;3244;42.708;23.288;2023-07-02T05:57:23;94459.50;;;21.35;76.44
6423;BME280;3244;42.708;23.288;2023-07-02T05:59:50;94464.75;;;21.64;75.79
6423;BME280;3244;42.708;23.288;2023-07-02T06:02:16;94457.72;;;21.85;75.36
6423;BME280;3244;42.708;23.288;2023-07-02T06:04:43;94456.94;;;22.33;74.55
6423;BME280;3244;42.708;23.288;2023-07-02T06:07:10;94458.16;;;23.24;71.63
6423;BME280;3244;42.708;23.288;2023-07-02T06:09:36;94460.22;;;24.20;68.47
6423;BME280;3244;42.708;23.288;2023-07-02T06:12:05;94447.56;;;24.96;65.27
6423;BME280;3244;42.708;23.288;2023-07-02T06:14:32;94447.63;;;25.13;63.94
6423;BME280;3244;42.708;23.288;2023-07-02T06:16:58;94435.81;;;24.92;63.94
6423;BME280;3244;42.708;23.288;2023-07-02T06:19:26;94435.69;;;24.76;64.68
6423;BME280;3244;42.708;23.288;2023-07-02T06:21:52;94430.31;;;24.69;64.73
6423;BME280;3244;42.708;23.288;2023-07-02T06:24:19;94421.22;;;24.48;64.86
6423;BME280;3244;42.708;23.288;2023-07-02T06:26:46;94427.22;;;24.30;64.54
6423;BME280;3244;42.708;23.288;2023-07-02T06:29:14;94435.91;;;23.58;66.67
6423;BME280;3244;42.708;23.288;2023-07-02T06:31:40;94439.53;;;23.38;68.09
6423;BME280;3244;42.708;23.288;2023-07-02T06:34:07;94437.47;;;23.41;68.54
6423;BME280;3244;42.708;23.288;2023-07-02T06:36:34;94435.16;;;23.76;67.72
6423;BME280;3244;42.708;23.288;2023-07-02T06:39:01;94431.25;;;24.42;65.96
6423;BME280;3244;42.708;23.288;2023-07-02T06:41:27;94425.50;;;24.83;64.86
6423;BME280;3244;42.708;23.288;2023-07-02T06:43:54;94424.50;;;25.69;61.53
6423;BME280;3244;42.708;23.288;2023-07-02T06:46:22;94414.53;;;26.39;58.43
6423;BME280;3244;42.708;23.288;2023-07-02T06:48:49;94407.97;;;26.27;56.98
6423;BME280;3244;42.708;23.288;2023-07-02T06:51:18;94419.97;;;25.80;59.60
6423;BME280;3244;42.708;23.288;2023-07-02T06:53:46;94416.34;;;25.64;59.61
6423;BME280;3244;42.708;23.288;2023-07-02T06:56:12;94425.31;;;25.36;60.11
6423;BME280;3244;42.708;23.288;2023-07-02T06:58:41;94437.97;;;25.31;60.39
6423;BME280;3244;42.708;23.288;2023-07-02T07:01:08;94426.91;;;25.29;61.63
6423;BME280;3244;42.708;23.288;2023-07-02T07:03:36;94431.53;;;25.51;60.34
6423;BME280;3244;42.708;23.288;2023-07-02T07:06:03;94432.31;;;25.77;59.15
6423;BME280;3244;42.708;23.288;2023-07-02T07:08:30;94431.88;;;26.06;59.30
6423;BME280;3244;42.708;23.288;2023-07-02T07:10:56;94433.53;;;26.24;59.28
6423;BME280;3244;42.708;23.288;2023-07-02T07:13:23;94430.81;;;26.58;58.39
6423;BME280;3244;42.708;23.288;2023-07-02T07:15:50;94419.69;;;27.04;56.77
6423;BME280;3244;42.708;23.288;2023-07-02T07:18:16;94421.72;;;28.03;53.16
6423;BME280;3244;42.708;23.288;2023-07-02T07:20:45;94414.69;;;30.26;48.62
6423;BME280;3244;42.708;23.288;2023-07-02T07:23:11;94407.28;;;34.57;38.42
6423;BME280;3244;42.708;23.288;2023-07-02T07:25:38;94409.41;;;35.96;33.98
6423;BME280;3244;42.708;23.288;2023-07-02T07:28:05;94411.03;;;35.78;34.58
6423;BME280;3244;42.708;23.288;2023-07-02T07:30:31;94412.44;;;34.13;37.33
6423;BME280;3244;42.708;23.288;2023-07-02T07:32:58;94408.25;;;33.35;38.83
6423;BME280;3244;42.708;23.288;2023-07-02T07:35:25;94405.50;;;32.90;39.45
6423;BME280;3244;42.708;23.288;2023-07-02T07:37:53;94410.81;;;32.03;41.54
6423;BME280;3244;42.708;23.288;2023-07-02T07:40:19;94405.91;;;31.39;42.49
6423;BME280;3244;42.708;23.288;2023-07-02T07:42:46;94406.78;;;31.59;42.33
6423;BME280;3244;42.708;23.288;2023-07-02T07:45:13;94397.97;;;33.13;39.60
6423;BME280;3244;42.708;23.288;2023-07-02T07:47:39;94401.16;;;33.93;37.17
6423;BME280;3244;42.708;23.288;2023-07-02T07:50:07;94396.13;;;34.23;37.64
6423;BME280;3244;42.708;23.288;2023-07-02T07:52:37;94412.19;;;35.46;35.33
6423;BME280;3244;42.708;23.288;2023-07-02T07:55:05;94408.31;;;36.87;33.25
6423;BME280;3244;42.708;23.288;2023-07-02T07:57:34;94413.44;;;36.70;31.48
6423;BME280;3244;42.708;23.288;2023-07-02T08:00:02;94403.09;;;37.73;30.61
6423;BME280;3244;42.708;23.288;2023-07-02T08:02:31;94400.00;;;38.95;28.94
6423;BME280;3244;42.708;23.288;2023-07-02T08:04:58;94409.69;;;40.49;26.92
6423;BME280;3244;42.708;23.288;2023-07-02T08:07:25;94411.78;;;40.20;27.39
6423;BME280;3244;42.708;23.288;2023-07-02T08:09:51;94407.31;;;39.60;27.75
6423;BME280;3244;42.708;23.288;2023-07-02T08:12:19;94404.75;;;40.09;27.49
6423;BME280;3244;42.708;23.288;2023-07-02T08:14:46;94407.75;;;40.71;26.64
6423;BME280;3244;42.708;23.288;2023-07-02T08:17:13;94409.19;;;41.58;25.65
6423;BME280;3244;42.708;23.288;2023-07-02T08:19:39;94400.16;;;42.32;24.91
6423;BME280;3244;42.708;23.288;2023-07-02T08:22:06;94409.25;;;40.62;25.65
6423;BME280;3244;42.708;23.288;2023-07-02T08:24:33;94405.78;;;37.50;30.45
6423;BME280;3244;42.708;23.288;2023-07-02T08:26:59;94397.03;;;34.42;34.90
6423;BME280;3244;42.708;23.288;2023-07-02T08:29:29;94397.69;;;33.48;38.27
6423;BME280;3244;42.708;23.288;2023-07-02T08:31:55;94399.81;;;35.22;35.29
6423;BME280;3244;42.708;23.288;2023-07-02T08:34:22;94399.63;;;36.68;31.53
6423;BME280;3244;42.708;23.288;2023-07-02T08:36:49;94398.34;;;34.26;35.33
6423;BME280;3244;42.708;23.288;2023-07-02T08:39:16;94399.75;;;34.60;35.63
6423;BME280;3244;42.708;23.288;2023-07-02T08:41:44;94392.28;;;34.57;35.23
6423;BME280;3244;42.708;23.288;2023-07-02T08:44:11;94401.06;;;35.62;34.33
6423;BME280;3244;42.708;23.288;2023-07-02T08:46:41;94405.66;;;37.45;31.13
6423;BME280;3244;42.708;23.288;2023-07-02T08:49:08;94403.16;;;36.50;32.54
6423;BME280;3244;42.708;23.288;2023-07-02T08:51:35;94393.03;;;36.35;33.20
6423;BME280;3244;42.708;23.288;2023-07-02T08:54:02;94397.78;;;35.97;32.32
6423;BME280;3244;42.708;23.288;2023-07-02T08:56:29;94394.97;;;36.10;32.88
6423;BME280;3244;42.708;23.288;2023-07-02T08:58:56;94385.03;;;38.27;30.69
6423;BME280;3244;42.708;23.288;2023-07-02T09:01:23;94384.09;;;40.21;27.24
6423;BME280;3244;42.708;23.288;2023-07-02T09:03:51;94392.78;;;40.65;26.50
6423;BME280;3244;42.708;23.288;2023-07-02T09:06:18;94388.28;;;40.39;26.59
6423;BME280;3244;42.708;23.288;2023-07-02T09:08:45;94392.94;;;37.82;28.84
6423;BME280;3244;42.708;23.288;2023-07-02T09:11:13;94391.16;;;34.40;34.24
6423;BME280;3244;42.708;23.288;2023-07-02T09:13:46;94389.56;;;32.04;39.44
6423;BME280;3244;42.708;23.288;2023-07-02T09:16:24;94386.13;;;31.91;41.17
6423;BME280;3244;42.708;23.288;2023-07-02T09:19:03;94389.22;;;35.28;35.35
6423;BME280;3244;42.708;23.288;2023-07-02T09:21:41;94381.97;;;36.08;33.49
6423;BME280;3244;42.708;23.288;2023-07-02T09:24:16;94381.22;;;35.53;33.98
6423;BME280;3244;42.708;23.288;2023-07-02T09:26:44;94381.28;;;34.60;35.52
6423;BME280;3244;42.708;23.288;2023-07-02T09:29:11;94374.34;;;34.03;37.09
6423;BME280;3244;42.708;23.288;2023-07-02T09:31:45;94377.06;;;33.32;36.77
6423;BME280;3244;42.708;23.288;2023-07-02T09:34:14;94371.84;;;32.26;39.00
6423;BME280;3244;42.708;23.288;2023-07-02T09:36:41;94375.47;;;32.25;40.14
6423;BME280;3244;42.708;23.288;2023-07-02T09:39:12;94377.94;;;32.33;40.37
6423;BME280;3244;42.708;23.288;2023-07-02T09:41:40;94382.25;;;31.80;42.36
6423;BME280;3244;42.708;23.288;2023-07-02T09:44:08;94387.22;;;30.43;44.87
6423;BME280;3244;42.708;23.288;2023-07-02T09:46:37;94382.00;;;29.21;47.64
6423;BME280;3244;42.708;23.288;2023-07-02T09:49:13;94384.16;;;28.50;50.56
6423;BME280;3244;42.708;23.288;2023-07-02T09:51:41;94373.47;;;28.60;49.85
6423;BME280;3244;42.708;23.288;2023-07-02T09:54:08;94379.09;;;28.49;49.04
6423;BME280;3244;42.708;23.288;2023-07-02T09:56:35;94374.66;;;28.34;49.63
6423;BME280;3244;42.708;23.288;2023-07-02T09:59:02;94378.66;;;28.83;49.69
6423;BME280;3244;42.708;23.288;2023-07-02T10:01:29;94371.72;;;29.34;47.91
6423;BME280;3244;42.708;23.288;2023-07-02T10:03:55;94372.88;;;29.61;47.69
6423;BME280;3244;42.708;23.288;2023-07-02T10:06:23;94367.84;;;29.81;46.78
6423;BME280;3244;42.708;23.288;2023-07-02T10:08:53;94368.41;;;29.97;47.50
6423;BME280;3244;42.708;23.288;2023-07-02T10:11:21;94368.63;;;29.30;47.80
6423;BME280;3244;42.708;23.288;2023-07-02T10:13:59;94353.13;;;28.70;49.56
6423;BME280;3244;42.708;23.288;2023-07-02T10:16:25;94360.66;;;28.27;49.42
6423;BME280;3244;42.708;23.288;2023-07-02T10:18:53;94349.22;;;27.83;50.85
6423;BME280;3244;42.708;23.288;2023-07-02T10:21:20;94342.72;;;27.78;52.80
6423;BME280;3244;42.708;23.288;2023-07-02T10:23:48;94349.69;;;27.63;51.55
6423;BME280;3244;42.708;23.288;2023-07-02T10:26:15;94343.19;;;27.59;52.16
6423;BME280;3244;42.708;23.288;2023-07-02T10:28:42;94339.72;;;27.67;52.52
6423;BME280;3244;42.708;23.288;2023-07-02T10:31:19;94337.63;;;27.85;48.13
6423;BME280;3244;42.708;23.288;2023-07-02T10:33:46;94343.78;;;27.69;47.17
6423;BME280;3244;42.708;23.288;2023-07-02T10:36:19;94340.81;;;27.41;47.84
6423;BME280;3244;42.708;23.288;2023-07-02T10:38:48;94346.41;;;27.22;46.43
6423;BME280;3244;42.708;23.288;2023-07-02T10:41:26;94337.84;;;27.14;48.93
6423;BME280;3244;42.708;23.288;2023-07-02T10:43:53;94336.78;;;27.31;48.17
6423;BME280;3244;42.708;23.288;2023-07-02T10:46:21;94337.31;;;27.49;47.92
6423;BME280;3244;42.708;23.288;2023-07-02T10:48:52;94341.09;;;27.77;47.58
6423;BME280;3244;42.708;23.288;2023-07-02T10:51:19;94338.31;;;28.02;48.02
6423;BME280;3244;42.708;23.288;2023-07-02T10:53:56;94324.16;;;28.19;45.93
6423;BME280;3244;42.708;23.288;2023-07-02T10:56:23;94336.09;;;28.36;46.15
6423;BME280;3244;42.708;23.288;2023-07-02T10:58:49;94328.22;;;28.22;45.20
6423;BME280;3244;42.708;23.288;2023-07-02T11:01:22;94332.53;;;27.92;46.20
6423;BME280;3244;42.708;23.288;2023-07-02T11:03:55;94331.19;;;27.96;47.04
6423;BME280;3244;42.708;23.288;2023-07-02T11:06:22;94327.41;;;28.21;47.13
6423;BME280;3244;42.708;23.288;2023-07-02T11:08:50;94325.81;;;28.20;45.97
6423;BME280;3244;42.708;23.288;2023-07-02T11:11:17;94326.25;;;28.01;46.93
6423;BME280;3244;42.708;23.288;2023-07-02T11:13:44;94323.56;;;28.09;48.24
6423;BME280;3244;42.708;23.288;2023-07-02T11:16:20;94317.53;;;28.31;48.14
6423;BME280;3244;42.708;23.288;2023-07-02T11:18:48;94314.28;;;28.29;47.61
6423;BME280;3244;42.708;23.288;2023-07-02T11:21:14;94326.06;;;28.25;47.58
6423;BME280;3244;42.708;23.288;2023-07-02T11:23:41;94340.41;;;28.29;47.17
6423;BME280;3244;42.708;23.288;2023-07-02T11:26:09;94345.06;;;28.19;48.05
6423;BME280;3244;42.708;23.288;2023-07-02T11:28:48;94347.84;;;27.95;50.30
6423;BME280;3244;42.708;23.288;2023-07-02T11:31:24;94352.75;;;27.67;52.46
6423;BME280;3244;42.708;23.288;2023-07-02T11:33:51;94348.31;;;27.36;53.26
6423;BME280;3244;42.708;23.288;2023-07-02T11:36:20;94357.34;;;27.26;54.23
6423;BME280;3244;42.708;23.288;2023-07-02T11:38:48;94346.31;;;27.16;54.15
6423;BME280;3244;42.708;23.288;2023-07-02T11:41:16;94346.81;;;27.11;54.41
6423;BME280;3244;42.708;23.288;2023-07-02T11:43:43;94354.25;;;27.22;53.32
6423;BME280;3244;42.708;23.288;2023-07-02T11:46:10;94353.06;;;27.33;52.50
6423;BME280;3244;42.708;23.288;2023-07-02T11:48:36;94345.25;;;27.33;52.28
6423;BME280;3244;42.708;23.288;2023-07-02T11:51:03;94346.53;;;27.37;51.23
6423;BME280;3244;42.708;23.288;2023-07-02T11:53:30;94346.84;;;27.42;50.16
6423;BME280;3244;42.708;23.288;2023-07-02T11:55:56;94352.75;;;27.28;49.50
6423;BME280;3244;42.708;23.288;2023-07-02T11:58:24;94356.09;;;27.14;49.86
6423;BME280;3244;42.708;23.288;2023-07-02T12:00:51;94345.19;;;27.02;50.74
6423;BME280;3244;42.708;23.288;2023-07-02T12:03:18;94345.72;;;26.97;51.26
6423;BME280;3244;42.708;23.288;2023-07-02T12:05:44;94350.44;;;26.86;51.84
6423;BME280;3244;42.708;23.288;2023-07-02T12:08:12;94354.09;;;26.68;52.76
6423;BME280;3244;42.708;23.288;2023-07-02T12:10:38;94354.56;;;26.64;53.57
6423;BME280;3244;42.708;23.288;2023-07-02T12:13:06;94347.41;;;26.58;54.33
6423;BME280;3244;42.708;23.288;2023-07-02T12:15:34;94347.41;;;26.58;55.32
6423;BME280;3244;42.708;23.288;2023-07-02T12:18:01;94350.84;;;26.50;55.63
6423;BME280;3244;42.708;23.288;2023-07-02T12:20:27;94353.97;;;26.46;55.80
6423;BME280;3244;42.708;23.288;2023-07-02T12:22:54;94359.00;;;26.39;56.37
6423;BME280;3244;42.708;23.288;2023-07-02T12:25:21;94374.31;;;26.42;56.45
6423;BME280;3244;42.708;23.288;2023-07-02T12:27:47;94369.94;;;26.42;56.85
6423;BME280;3244;42.708;23.288;2023-07-02T12:30:14;94374.28;;;26.58;57.09
6423;BME280;3244;42.708;23.288;2023-07-02T12:32:44;94366.59;;;26.81;56.67
6423;BME280;3244;42.708;23.288;2023-07-02T12:35:11;94367.66;;;27.19;55.68
6423;BME280;3244;42.708;23.288;2023-07-02T12:37:43;94371.69;;;27.69;54.59
6423;BME280;3244;42.708;23.288;2023-07-02T12:40:10;94367.00;;;28.10;53.72
6423;BME280;3244;42.708;23.288;2023-07-02T12:42:37;94362.25;;;28.36;52.73
6423;BME280;3244;42.708;23.288;2023-07-02T12:45:05;94353.88;;;28.56;52.13
6423;BME280;3244;42.708;23.288;2023-07-02T12:47:32;94346.63;;;28.66;51.57
6423;BME280;3244;42.708;23.288;2023-07-02T12:50:00;94360.03;;;28.63;51.93
6423;BME280;3244;42.708;23.288;2023-07-02T12:52:28;94344.59;;;28.53;51.93
6423;BME280;3244;42.708;23.288;2023-07-02T12:54:54;94357.66;;;28.38;51.53
6423;BME280;3244;42.708;23.288;2023-07-02T12:57:21;94349.94;;;28.22;52.07
6423;BME280;3244;42.708;23.288;2023-07-02T12:59:48;94347.88;;;28.09;52.35
6423;BME280;3244;42.708;23.288;2023-07-02T13:02:14;94342.88;;;28.00;52.99
6423;BME280;3244;42.708;23.288;2023-07-02T13:04:41;94342.00;;;27.93;53.89
6423;BME280;3244;42.708;23.288;2023-07-02T13:07:09;94341.09;;;27.77;53.24
6423;BME280;3244;42.708;23.288;2023-07-02T13:09:36;94340.88;;;27.64;54.29
6423;BME280;3244;42.708;23.288;2023-07-02T13:12:03;94336.34;;;27.50;54.56